Time;durP1;ratioP1;P1;durP2;ratioP2;P2;SDS_P1;SDS_P2;PMS_P1;PMS_P2;Temp;Humidity;BMP_temperature;BMP_pressure;BME280_temperature;BME280_humidity;BME280_pressure;Samples;Min_cycle;Max_cycle;Signal;HPM_P1;HPM_P2
2023/01/02 07:37:18;;;;;;;1999.90;999.90;;;;;;;7.54;81.09;98299.63;5015044;28;21367;-60
2023/01/02 07:40:20;;;;;;;1999.90;999.90;;;;;;;7.40;81.78;98340.28;5060664;28;20716;-54
2023/01/02 07:42:46;;;;;;;1999.90;999.90;;;;;;;7.46;83.38;98336.25;5045265;28;20053;-64
2023/01/02 07:45:13;;;;;;;1999.90;999.90;;;;;;;7.18;83.43;98367.91;5040525;28;20089;-58
2023/01/02 07:47:40;;;;;;;1999.90;999.90;;;;;;;5.27;83.43;97955.84;5066875;28;20053;-55
2023/01/02 07:50:07;;;;;;;1999.90;999.90;;;;;;;6.88;83.68;98186.91;5053533;28;20064;-61
2023/01/02 07:52:33;;;;;;;1999.90;999.90;;;;;;;7.12;88.09;98324.28;5052421;28;20080;-63
2023/01/02 07:55:00;;;;;;;1999.90;999.90;;;;;;;6.92;90.55;98344.91;5058977;28;20059;-55
2023/01/02 07:57:30;;;;;;;1999.90;999.90;;;;;;;7.07;90.12;98336.25;5058310;28;20102;-56
2023/01/02 07:59:57;;;;;;;1999.90;999.90;;;;;;;4.68;89.62;97974.31;5058253;28;20469;-63
2023/01/02 08:02:23;;;;;;;1999.90;999.90;;;;;;;6.70;92.62;98344.13;5043114;28;20081;-62
2023/01/02 08:04:50;;;;;;;1999.90;999.90;;;;;;;6.77;92.09;98345.28;5053459;28;20490;-57
2023/01/02 08:07:17;;;;;;;1999.90;999.90;;;;;;;6.14;93.02;98242.84;5051915;28;20076;-57
2023/01/02 08:09:43;;;;;;;1999.90;999.90;;;;;;;6.92;92.53;98347.69;5046700;28;20045;-66
2023/01/02 08:12:11;;;;;;;1999.90;999.90;;;;;;;7.36;92.60;98347.59;5046451;28;20080;-64
2023/01/02 08:14:38;;;;;;;1999.90;999.90;;;;;;;7.51;90.27;98349.91;5057970;28;20045;-65
2023/01/02 08:17:05;;;;;;;1999.90;999.90;;;;;;;7.72;89.04;98322.56;5057615;28;20051;-63
2023/01/02 08:19:33;;;;;;;1999.90;999.90;;;;;;;7.07;88.43;98178.38;5057927;28;20052;-63
2023/01/02 08:22:00;;;;;;;1999.90;999.90;;;;;;;8.38;87.36;98340.69;5047006;28;20512;-60
2023/01/02 08:24:26;;;;;;;1999.90;999.90;;;;;;;8.58;84.29;98340.06;5041493;28;20046;-60
2023/01/02 08:26:53;;;;;;;1999.90;999.90;;;;;;;7.86;83.80;98210.13;5043455;28;20087;-64
2023/01/02 08:29:20;;;;;;;1999.90;999.90;;;;;;;8.74;83.25;98316.31;5040116;28;20053;-65
2023/01/02 08:31:46;;;;;;;1999.90;999.90;;;;;;;8.53;82.51;98215.94;5042810;28;20139;-63
2023/01/02 08:34:14;;;;;;;1999.90;999.90;;;;;;;9.43;81.49;98333.53;5052579;28;20144;-62
2023/01/02 08:36:44;;;;;;;1999.90;999.90;;;;;;;9.43;80.62;98306.69;5057530;28;20057;-67
2023/01/02 08:39:10;;;;;;;1999.90;999.90;;;;;;;9.30;79.57;98263.47;5056366;28;20550;-63
2023/01/02 08:41:39;;;;;;;1999.90;999.90;;;;;;;9.72;78.96;98297.59;5057415;28;20443;-63
2023/01/02 08:44:06;;;;;;;35.58;19.38;;;;;;;9.69;78.45;98263.09;5059404;28;20439;-64
2023/01/02 08:46:34;;;;;;;82.47;28.63;;;;;;;9.45;77.20;98224.19;5059112;28;20151;-57
2023/01/02 08:49:09;;;;;;;79.30;25.38;;;;;;;10.48;75.50;98321.16;5058787;28;20106;-56
2023/01/02 08:51:35;;;;;;;74.25;26.58;;;;;;;10.60;75.45;98310.97;5040549;28;20049;-62
2023/01/02 08:54:02;;;;;;;61.67;24.55;;;;;;;10.58;74.51;98288.34;5019817;28;20053;-57
2023/01/02 08:56:31;;;;;;;62.55;24.55;;;;;;;10.81;73.86;98304.59;5011377;28;20176;-58
2023/01/02 08:59:03;;;;;;;51.33;22.65;;;;;;;10.80;73.41;98291.88;5006473;28;20054;-56
2023/01/02 09:01:32;;;;;;;61.88;25.15;;;;;;;10.61;73.56;98237.78;5020239;28;20046;-60
2023/01/02 09:03:59;;;;;;;59.55;24.30;;;;;;;11.18;72.76;98300.75;5011875;28;20137;-64
2023/01/02 09:06:32;;;;;;;45.83;20.10;;;;;;;11.43;71.59;98299.66;4991007;28;20803;-62
2023/01/02 09:08:59;;;;;;;1999.90;999.90;;;;;;;11.38;70.76;98292.34;4998296;28;20427;-60
2023/01/02 09:11:44;;;;;;;20.00;11.23;;;;;;;10.78;71.33;98170.25;4985231;28;20061;-60
2023/01/02 09:14:10;;;;;;;20.60;10.93;;;;;;;10.92;70.74;98178.25;4985337;28;20157;-64
2023/01/02 09:16:38;;;;;;;15.80;8.35;;;;;;;11.31;70.67;98283.00;4999377;28;20046;-60
2023/01/02 09:19:05;;;;;;;14.80;9.32;;;;;;;11.44;70.97;98281.84;4987402;28;20137;-62
2023/01/02 09:21:32;;;;;;;14.38;7.78;;;;;;;11.75;69.33;98287.66;4986026;28;20046;-56
2023/01/02 09:23:58;;;;;;;14.35;8.80;;;;;;;11.67;68.79;98225.56;5000088;28;20041;-65
2023/01/02 09:26:25;;;;;;;16.65;10.30;;;;;;;12.17;68.12;98244.56;4992182;28;20442;-57
2023/01/02 09:28:52;;;;;;;15.15;9.30;;;;;;;12.07;67.37;98222.84;4988233;28;20058;-56
2023/01/02 09:31:19;;;;;;;33.67;20.40;;;;;;;12.47;68.05;98259.72;4997436;28;20133;-69
2023/01/02 09:33:46;;;;;;;20.77;12.48;;;;;;;12.29;66.83;98194.50;4986132;28;20142;-61
2023/01/02 09:36:16;;;;;;;13.65;7.63;;;;;;;12.33;66.50;98220.41;4994269;28;20049;-61
2023/01/02 09:38:43;;;;;;;11.65;7.63;;;;;;;11.76;66.70;98150.50;5005351;28;20069;-62
2023/01/02 09:41:38;;;;;;;11.90;7.90;;;;;;;12.36;67.22;98230.81;5001053;28;20124;-58
2023/01/02 09:44:17;;;;;;;41.72;25.90;;;;;;;12.75;67.44;98227.19;4986593;28;20054;-62
2023/01/02 09:47:01;;;;;;;24.02;13.45;;;;;;;12.97;66.88;98228.56;4985760;28;20058;-59
2023/01/02 09:49:32;;;;;;;45.10;22.77;;;;;;;13.23;66.13;98229.69;4984295;28;20045;-64
2023/01/02 09:51:59;;;;;;;13.63;7.30;;;;;;;13.13;64.50;98221.09;4992821;28;20108;-58
2023/01/02 09:54:28;;;;;;;10.55;6.60;;;;;;;13.06;64.55;98224.47;4987851;28;20093;-62
2023/01/02 09:57:11;;;;;;;9.27;5.80;;;;;;;13.06;63.98;98205.00;4992773;28;20524;-57
2023/01/02 10:00:03;;;;;;;9.20;6.43;;;;;;;13.28;63.21;98215.50;4985880;28;20054;-66
2023/01/02 10:02:39;;;;;;;11.38;7.32;;;;;;;13.65;62.49;98207.69;4997553;28;20145;-57
2023/01/02 10:05:35;;;;;;;8.20;5.88;;;;;;;13.74;60.71;98210.28;5002245;28;20057;-62
2023/01/02 10:08:08;;;;;;;10.48;6.15;;;;;;;13.73;61.49;98205.84;4995749;28;20082;-57
2023/01/02 10:10:45;;;;;;;9.57;6.10;;;;;;;13.26;61.21;98097.41;4985160;28;20066;-59
2023/01/02 10:13:24;;;;;;;8.07;6.25;;;;;;;14.33;59.97;98194.91;4993171;28;20050;-71
2023/01/02 10:16:17;;;;;;;6.63;5.30;;;;;;;13.97;58.86;98144.34;5004521;28;20045;-58
2023/01/02 10:18:48;;;;;;;8.07;5.35;;;;;;;14.00;59.39;98171.47;4989826;28;20492;-62
2023/01/02 10:21:21;;;;;;;9.52;6.45;;;;;;;14.43;59.37;98185.94;4990406;28;20085;-57
2023/01/02 10:23:59;;;;;;;13.30;8.38;;;;;;;14.61;59.05;98180.72;4988127;28;20639;-57
2023/01/02 10:26:33;;;;;;;121.00;16.65;;;;;;;14.74;58.53;98190.53;4990531;28;20201;-61
2023/01/02 10:29:14;;;;;;;18.35;9.73;;;;;;;14.91;57.31;98178.91;4991860;28;20092;-61
2023/01/02 10:31:47;;;;;;;17.23;10.13;;;;;;;15.20;56.25;98175.44;5005654;28;20116;-56
2023/01/02 10:34:20;;;;;;;10.48;7.85;;;;;;;15.40;55.34;98168.63;4998497;28;20061;-59
2023/01/02 10:36:48;;;;;;;9.88;5.93;;;;;;;15.30;54.83;98137.72;4991318;28;20053;-60
2023/01/02 10:39:23;;;;;;;9.10;6.20;;;;;;;15.69;54.07;98164.28;4985906;28;20183;-65
2023/01/02 10:41:56;;;;;;;7.63;5.70;;;;;;;15.69;53.03;98159.50;4992357;28;20098;-60
2023/01/02 10:44:27;;;;;;;6.57;4.80;;;;;;;15.08;52.66;98044.44;5003874;28;20049;-61
2023/01/02 10:46:55;;;;;;;8.50;5.38;;;;;;;15.41;52.58;98102.41;5003763;28;20057;-64
2023/01/02 10:49:24;;;;;;;7.18;5.10;;;;;;;15.80;52.48;98151.28;4995446;28;20054;-61
2023/01/02 10:52:06;;;;;;;6.75;6.03;;;;;;;15.83;51.96;98131.78;5000567;28;20497;-69
2023/01/02 10:54:53;;;;;;;9.88;6.15;;;;;;;15.95;52.31;98139.91;4990108;28;20120;-57
2023/01/02 10:57:38;;;;;;;6.53;4.20;;;;;;;15.22;52.43;98094.13;4998970;28;20093;-56
2023/01/02 11:00:22;;;;;;;9.50;6.05;;;;;;;15.75;52.59;98141.22;4985028;28;20062;-68
2023/01/02 11:02:59;;;;;;;7.05;5.35;;;;;;;16.01;51.91;98130.00;4985059;28;20058;-56
2023/01/02 11:05:30;;;;;;;16.40;11.30;;;;;;;16.11;51.76;98120.97;4984835;28;20141;-64
2023/01/02 11:07:57;;;;;;;6.20;4.53;;;;;;;15.99;51.21;98129.59;4988863;28;20147;-55
2023/01/02 11:10:28;;;;;;;8.20;6.07;;;;;;;15.74;51.65;98122.88;4999850;28;20053;-55
2023/01/02 11:12:55;;;;;;;7.10;5.15;;;;;;;15.98;51.55;98127.19;5002718;28;20607;-55
2023/01/02 11:15:25;;;;;;;18.30;10.05;;;;;;;16.22;51.99;98121.91;5003994;28;20480;-55
2023/01/02 11:17:52;;;;;;;11.35;7.05;;;;;;;16.36;51.23;98119.25;5000366;28;20077;-57
2023/01/02 11:20:25;;;;;;;5.78;4.80;;;;;;;16.36;50.67;98110.88;4986540;28;20054;-60
2023/01/02 11:22:54;;;;;;;8.10;4.53;;;;;;;16.13;50.82;98093.44;4984534;28;20054;-56
2023/01/02 11:25:28;;;;;;;6.57;5.40;;;;;;;16.37;50.85;98101.31;4990608;28;20406;-59
2023/01/02 11:27:59;;;;;;;10.10;6.80;;;;;;;16.19;50.44;98083.53;4984570;28;20053;-59
2023/01/02 11:30:28;;;;;;;6.05;4.97;;;;;;;16.32;50.92;98104.44;4997610;28;20064;-60
2023/01/02 11:33:27;;;;;;;22.58;12.52;;;;;;;16.57;50.73;98091.56;5000565;28;20064;-56
2023/01/02 11:35:58;;;;;;;8.30;5.22;;;;;;;16.81;50.02;98087.41;4983850;28;20062;-57
2023/01/02 11:38:27;;;;;;;6.22;5.53;;;;;;;16.73;50.24;98079.31;4982688;28;20085;-59
2023/01/02 11:40:59;;;;;;;44.03;10.70;;;;;;;16.75;50.02;98082.53;4983842;28;20204;-56
2023/01/02 11:43:50;;;;;;;6.57;5.88;;;;;;;16.28;50.13;98025.28;4986008;28;20687;-56
2023/01/02 11:46:34;;;;;;;7.10;5.97;;;;;;;16.57;50.20;98077.56;4984456;28;20062;-59
2023/01/02 11:49:15;;;;;;;9.23;7.38;;;;;;;16.67;50.13;98064.88;4984325;28;20473;-61
2023/01/02 11:51:42;;;;;;;6.78;5.25;;;;;;;16.28;50.29;98067.25;4984052;28;20096;-60
2023/01/02 11:54:13;;;;;;;8.10;6.22;;;;;;;16.58;50.27;98062.38;4983930;28;20054;-56
2023/01/02 11:56:43;;;;;;;6.90;5.45;;;;;;;16.69;49.88;98067.28;4984174;28;20555;-58
2023/01/02 11:59:27;;;;;;;8.50;5.75;;;;;;;16.83;49.78;98059.03;4984206;28;20484;-58
2023/01/02 12:02:04;;;;;;;5.97;5.38;;;;;;;16.59;49.78;98052.81;4984091;28;20544;-55
2023/01/02 12:04:31;;;;;;;10.48;7.20;;;;;;;16.56;49.95;98053.59;4983962;28;20053;-56
2023/01/02 12:07:07;;;;;;;13.10;8.55;;;;;;;16.49;50.66;98047.91;4983780;28;20136;-56
2023/01/02 12:09:58;;;;;;;6.13;5.53;;;;;;;16.44;50.02;98051.06;4982290;28;20054;-59
2023/01/02 12:13:03;;;;;;;7.97;6.07;;;;;;;16.25;50.54;98048.44;4983881;28;20145;-56
2023/01/02 12:15:38;;;;;;;8.75;6.20;;;;;;;16.29;50.72;98043.69;4987886;28;20491;-59
2023/01/02 12:18:14;;;;;;;6.38;4.97;;;;;;;16.33;50.64;98046.50;4984548;28;20062;-55
2023/01/02 12:20:59;;;;;;;8.02;4.65;;;;;;;16.42;50.21;98042.22;4984068;28;20100;-58
2023/01/02 12:23:46;;;;;;;7.45;5.55;;;;;;;16.50;50.79;98032.75;4984501;28;20059;-59
2023/01/02 12:26:19;;;;;;;8.10;5.55;;;;;;;16.49;50.69;98036.72;4985872;28;20081;-58
2023/01/02 12:29:07;;;;;;;7.78;5.80;;;;;;;16.57;50.30;98038.41;4991000;28;20575;-60
2023/01/02 12:31:59;;;;;;;6.55;5.80;;;;;;;16.03;50.07;98012.22;4986639;28;20061;-60
2023/01/02 12:34:53;;;;;;;10.68;7.55;;;;;;;16.26;50.63;98027.69;4986497;28;20046;-59
2023/01/02 12:37:35;;;;;;;20.92;12.02;;;;;;;16.27;50.95;98023.69;4987542;28;20112;-59
2023/01/02 12:40:33;;;;;;;6.68;5.63;;;;;;;16.35;50.27;98030.97;4987370;28;20092;-57
2023/01/02 12:43:24;;;;;;;6.75;5.65;;;;;;;16.41;50.60;98035.03;4987561;28;20517;-57
2023/01/02 12:46:15;;;;;;;9.95;6.78;;;;;;;15.90;50.51;97950.22;4988010;28;20050;-59
2023/01/02 12:49:20;;;;;;;14.07;7.65;;;;;;;16.55;50.70;98029.59;4987871;28;20054;-59
2023/01/02 12:52:22;;;;;;;10.65;5.55;;;;;;;16.55;50.61;98034.38;4987495;28;20057;-59
2023/01/02 12:55:03;;;;;;;8.57;6.45;;;;;;;16.37;50.79;98023.00;4990210;28;20157;-59
2023/01/02 12:57:49;;;;;;;6.75;5.60;;;;;;;16.35;50.53;98022.59;4987562;28;20057;-60
2023/01/02 13:00:32;;;;;;;5.82;5.00;;;;;;;16.19;50.42;98027.59;4987631;28;20484;-57
2023/01/02 13:02:58;;;;;;;7.32;5.65;;;;;;;16.21;50.56;98024.41;4987573;28;20137;-59
2023/01/02 13:05:32;;;;;;;8.35;6.90;;;;;;;16.13;50.18;98001.19;4987424;28;20066;-57
2023/01/02 13:08:05;;;;;;;6.95;5.45;;;;;;;15.80;50.79;97964.88;4987312;28;20051;-59
2023/01/02 13:10:32;;;;;;;10.00;7.30;;;;;;;15.77;50.91;97953.66;4986951;28;20054;-57
2023/01/02 13:13:00;;;;;;;7.75;6.40;;;;;;;16.21;50.97;98033.63;4986780;28;20498;-58
2023/01/02 13:15:33;;;;;;;8.90;6.78;;;;;;;16.07;51.62;98015.88;4986969;28;20125;-58
2023/01/02 13:18:12;;;;;;;12.48;6.65;;;;;;;16.14;51.61;98032.72;4987163;28;20050;-56
2023/01/02 13:20:51;;;;;;;7.57;5.68;;;;;;;16.18;50.79;98030.78;4986978;28;20193;-59
2023/01/02 13:23:39;;;;;;;8.88;6.40;;;;;;;16.15;51.23;98032.38;4986120;28;20054;-60
2023/01/02 13:26:11;;;;;;;7.07;5.15;;;;;;;15.76;50.78;97991.97;4986292;28;20114;-58
2023/01/02 13:29:17;;;;;;;9.27;6.07;;;;;;;16.18;50.75;98028.00;4987326;28;20584;-60
2023/01/02 13:31:51;;;;;;;5.80;5.00;;;;;;;16.01;51.32;98023.78;4986533;28;20077;-58
2023/01/02 13:34:26;;;;;;;7.13;5.57;;;;;;;15.92;51.67;98028.88;4987097;28;20054;-58
2023/01/02 13:37:05;;;;;;;14.15;8.80;;;;;;;15.73;51.73;98015.06;4986666;28;20497;-60
2023/01/02 13:39:37;;;;;;;8.18;5.43;;;;;;;15.77;52.10;98023.50;4986494;28;20121;-60
2023/01/02 13:44:59;;;;;;;9.05;5.97;;;;;;;15.68;52.74;98032.16;4987033;28;20062;-60
2023/01/02 13:47:35;;;;;;;6.18;5.25;;;;;;;15.57;52.61;98034.03;4986301;28;20062;-59
2023/01/02 13:50:14;;;;;;;12.52;7.57;;;;;;;15.54;52.54;98040.38;4985316;28;20606;-59
2023/01/02 13:52:58;;;;;;;34.17;14.82;;;;;;;15.52;53.23;98031.59;4986536;28;20407;-59
2023/01/02 13:55:32;;;;;;;22.00;10.43;;;;;;;15.47;53.70;98031.09;4986389;28;20258;-57
2023/01/02 14:00:45;;;;;;;20.80;11.68;;;;;;;15.37;53.91;98028.91;4986688;28;20058;-57
2023/01/02 14:03:22;;;;;;;21.92;12.23;;;;;;;15.31;54.14;98034.03;4986335;28;20133;-57
2023/01/02 14:05:55;;;;;;;14.82;8.02;;;;;;;15.29;53.71;98027.19;4986938;28;20060;-57
2023/01/02 14:08:34;;;;;;;8.17;5.57;;;;;;;15.22;53.98;98032.69;4985809;28;20081;-59
2023/01/02 14:11:09;;;;;;;9.93;7.20;;;;;;;15.01;54.76;98027.59;4984634;28;20356;-60
2023/01/02 14:13:40;;;;;;;9.77;7.90;;;;;;;15.03;54.51;98025.25;4986052;28;20108;-59
2023/01/02 14:16:45;;;;;;;8.85;7.07;;;;;;;14.97;55.00;98026.72;4986781;28;20058;-56
2023/01/02 14:19:11;;;;;;;7.75;6.53;;;;;;;14.88;55.70;98027.00;4985409;28;20128;-59
2023/01/02 14:21:50;;;;;;;9.82;7.30;;;;;;;14.77;56.19;98022.44;4984523;28;20112;-59
2023/01/02 14:24:32;;;;;;;19.88;11.18;;;;;;;14.67;56.83;98017.47;4985721;28;20539;-57
2023/01/02 14:27:04;;;;;;;173.02;74.63;;;;;;;14.61;56.73;98019.78;4984333;28;20576;-57
2023/01/02 14:29:40;;;;;;;74.93;39.60;;;;;;;14.58;57.20;98022.50;4985990;28;20050;-59
2023/01/02 14:32:18;;;;;;;54.67;30.67;;;;;;;14.47;57.31;98024.31;4985998;28;20113;-57
2023/01/02 14:34:48;;;;;;;81.53;43.65;;;;;;;14.10;57.77;97981.41;4985725;28;20057;-57
2023/01/02 14:37:46;;;;;;;77.15;44.67;;;;;;;14.20;58.72;98025.38;4985747;28;20510;-58
2023/01/02 14:40:31;;;;;;;68.90;45.83;;;;;;;14.00;59.85;98026.59;4992724;28;20631;-55
2023/01/02 14:45:51;;;;;;;94.97;61.13;;;;;;;13.49;62.31;98029.53;4985361;28;20544;-57
2023/01/02 14:48:26;;;;;;;88.47;54.55;;;;;;;13.22;63.59;98036.09;4994123;28;20513;-57
2023/01/02 14:51:02;;;;;;;89.47;53.00;;;;;;;12.90;64.09;98020.59;5005124;28;20046;-57
2023/01/02 14:53:37;;;;;;;99.40;54.40;;;;;;;12.64;65.03;98012.03;5004969;28;20145;-56
2023/01/02 14:56:11;;;;;;;111.47;58.25;;;;;;;12.54;65.80;98037.59;5003590;28;20081;-59
2023/01/02 14:58:47;;;;;;;80.72;47.95;;;;;;;12.59;65.85;98051.22;5003179;28;20544;-58
2023/01/02 15:01:23;;;;;;;89.80;52.42;;;;;;;12.31;66.47;98039.38;5004718;28;20606;-58
2023/01/02 15:04:37;;;;;;;90.97;52.17;;;;;;;11.99;67.77;98040.50;5004609;28;21011;-56
2023/01/02 15:07:24;;;;;;;92.72;51.17;;;;;;;11.78;68.86;98037.94;5004734;28;20133;-58
2023/01/02 15:09:55;;;;;;;106.03;59.83;;;;;;;11.61;69.42;98037.41;5003220;28;20084;-58
2023/01/02 15:15:14;;;;;;;90.40;58.75;;;;;;;11.21;70.46;98028.25;4992600;28;20046;-58
2023/01/02 15:17:42;;;;;;;142.88;64.75;;;;;;;8.73;70.83;97679.38;4995614;28;20073;-60
2023/01/02 15:20:18;;;;;;;149.88;67.30;;;;;;;10.46;72.73;98005.72;4985298;28;20420;-58
2023/01/02 15:22:45;;;;;;;173.88;94.60;;;;;;;10.54;73.65;98026.94;4983864;28;20058;-58
2023/01/02 15:25:14;;;;;;;171.20;90.00;;;;;;;9.98;74.53;97969.66;4985451;28;20053;-57
2023/01/02 15:27:53;;;;;;;107.60;55.72;;;;;;;10.18;75.65;98002.00;4985091;28;20054;-58
2023/01/02 15:30:37;;;;;;;84.57;42.00;;;;;;;10.25;77.42;98052.09;4985120;28;21247;-56
2023/01/02 15:33:23;;;;;;;120.40;55.28;;;;;;;10.16;76.74;98032.00;4984026;28;20065;-58
2023/01/02 15:36:02;;;;;;;79.47;41.95;;;;;;;10.30;76.82;98081.53;4984554;28;20540;-58
2023/01/02 15:38:30;;;;;;;81.85;44.92;;;;;;;10.25;76.93;98065.94;4992246;28;20578;-55
2023/01/02 15:40:57;;;;;;;87.93;47.22;;;;;;;10.21;77.16;98070.53;5003188;28;20104;-56
2023/01/02 15:46:14;;;;;;;67.88;38.50;;;;;;;9.93;77.81;98066.75;5003904;28;20112;-58
2023/01/02 15:48:42;;;;;;;74.72;39.33;;;;;;;9.88;78.13;98069.72;5004351;28;20049;-55
2023/01/02 15:51:21;;;;;;;76.20;39.95;;;;;;;9.83;78.50;98072.69;5004355;28;20046;-58
2023/01/02 15:54:12;;;;;;;72.57;41.72;;;;;;;9.63;79.14;98068.00;5003050;28;20513;-56
2023/01/02 15:56:39;;;;;;;82.75;46.83;;;;;;;9.27;79.91;98031.06;5003944;28;20100;-58
2023/01/02 15:59:32;;;;;;;84.00;44.05;;;;;;;9.50;80.03;98084.91;5004337;28;20112;-58
2023/01/02 16:02:01;;;;;;;82.28;44.75;;;;;;;9.49;80.47;98081.31;5006793;28;20042;-56
2023/01/02 16:04:31;;;;;;;83.82;45.08;;;;;;;9.11;80.97;98039.16;5007778;28;20140;-55
2023/01/02 16:07:15;;;;;;;57.95;34.28;;;;;;;9.21;82.19;98083.00;5007494;28;20120;-58
2023/01/02 16:09:54;;;;;;;65.50;35.10;;;;;;;9.07;82.98;98082.47;5007655;28;20054;-59
2023/01/02 16:12:22;;;;;;;60.20;35.70;;;;;;;8.68;83.39;98027.59;4988464;28;20129;-58
2023/01/02 16:14:54;;;;;;;54.42;32.22;;;;;;;8.96;83.62;98086.75;4987947;28;20125;-59
2023/01/02 16:17:26;;;;;;;122.90;64.05;;;;;;;8.93;82.94;98087.44;4988482;28;20502;-57
2023/01/02 16:19:55;;;;;;;130.20;68.40;;;;;;;7.49;83.03;97855.94;5001847;28;20056;-56
2023/01/02 16:22:34;;;;;;;82.72;44.45;;;;;;;8.79;83.44;98075.78;4996500;28;20062;-57
2023/01/02 16:25:07;;;;;;;60.55;32.90;;;;;;;8.86;83.55;98096.25;4998700;28;20132;-55
2023/01/02 16:27:47;;;;;;;51.75;30.50;;;;;;;8.64;85.17;98091.00;4996503;28;20065;-57
2023/01/02 16:30:41;;;;;;;51.85;29.48;;;;;;;8.55;85.62;98098.47;4987778;28;20046;-58
2023/01/02 16:33:35;;;;;;;49.22;30.27;;;;;;;8.45;86.27;98103.56;4987518;28;20502;-58
2023/01/02 16:36:04;;;;;;;;;;;;;;;8.34;86.84;98102.31;4471409;28;9999795;-57
2023/01/02 16:38:54;;;;;;;51.92;29.90;;;;;;;8.27;86.83;98102.81;4987762;28;20392;-55
2023/01/02 16:41:36;;;;;;;60.13;33.08;;;;;;;8.23;87.00;98103.81;4987325;28;20066;-55
2023/01/02 16:44:11;;;;;;;59.05;33.90;;;;;;;8.22;87.01;98110.44;4987979;28;20134;-55
2023/01/02 16:46:38;;;;;;;61.60;37.65;;;;;;;8.16;87.47;98103.47;4987597;28;20429;-58
2023/01/02 16:49:06;;;;;;;56.55;35.95;;;;;;;8.04;88.64;98103.34;5002630;28;20579;-56
2023/01/02 16:51:33;;;;;;;61.65;36.72;;;;;;;8.04;88.58;98108.84;5006626;28;20053;-58
2023/01/02 16:53:59;;;;;;;68.75;38.08;;;;;;;7.92;88.38;98092.97;5007100;28;20049;-58
2023/01/02 16:56:26;;;;;;;60.15;34.28;;;;;;;7.93;88.98;98108.41;5006718;28;20057;-57
2023/01/02 16:58:53;;;;;;;52.47;31.73;;;;;;;7.89;88.78;98110.16;5007075;28;20414;-58
2023/01/02 17:01:22;;;;;;;51.20;29.35;;;;;;;7.29;89.96;98044.06;4991155;28;20474;-58
2023/01/02 17:03:49;;;;;;;42.13;26.48;;;;;;;7.79;90.34;98101.44;4987567;28;20047;-61
2023/01/02 17:06:19;;;;;;;41.35;23.00;;;;;;;7.42;90.01;98072.59;4987164;28;20433;-58
2023/01/02 17:08:46;;;;;;;47.88;26.40;;;;;;;7.84;89.65;98115.84;4987116;28;20050;-57
2023/01/02 17:11:16;;;;;;;40.20;22.27;;;;;;;7.63;90.91;98104.69;4986026;28;20058;-57
2023/01/02 17:13:43;;;;;;;36.10;20.58;;;;;;;7.37;90.46;98051.53;4987191;28;20228;-58
2023/01/02 17:16:09;;;;;;;41.10;24.38;;;;;;;7.63;89.83;98093.66;4992943;28;20500;-59
2023/01/02 17:18:36;;;;;;;46.75;27.73;;;;;;;7.65;90.13;98107.94;5014201;28;20396;-59
2023/01/02 17:21:03;;;;;;;52.40;28.17;;;;;;;7.52;90.35;98114.41;5017505;28;20120;-59
2023/01/02 17:23:30;;;;;;;55.80;30.38;;;;;;;7.52;90.70;98122.69;4986990;28;20058;-57
2023/01/02 17:25:57;;;;;;;55.20;30.67;;;;;;;6.86;93.03;98056.97;4984973;28;20414;-57
2023/01/02 17:28:23;;;;;;;52.72;28.45;;;;;;;6.80;93.33;98063.78;4985418;28;20050;-54
2023/01/02 17:30:50;;;;;;;47.58;27.73;;;;;;;7.02;93.73;98093.94;4986614;28;20058;-55
2023/01/02 17:33:18;;;;;;;53.72;26.98;;;;;;;7.09;94.05;98110.84;4987118;28;20437;-57
2023/01/02 17:35:45;;;;;;;50.13;26.20;;;;;;;6.92;95.02;98116.31;4986170;28;20046;-57
2023/01/02 17:38:13;;;;;;;52.75;29.05;;;;;;;6.84;95.79;98114.34;4986680;28;20109;-55
2023/01/02 17:40:39;;;;;;;62.95;31.50;;;;;;;6.33;95.06;98039.84;4986494;28;20148;-57
2023/01/02 17:43:06;;;;;;;57.10;30.35;;;;;;;6.60;95.08;98102.94;4998723;28;20489;-58
2023/01/02 17:45:32;;;;;;;55.35;28.05;;;;;;;6.63;95.26;98116.06;5005031;28;20081;-55
2023/01/02 17:47:59;;;;;;;63.97;31.25;;;;;;;6.66;95.03;98120.09;5006042;28;20191;-59
2023/01/02 17:50:36;;;;;;;43.10;25.30;;;;;;;6.75;94.49;98121.75;4989388;28;20069;-57
2023/01/02 17:53:03;;;;;;;45.88;25.60;;;;;;;6.78;94.41;98131.34;4985036;28;20054;-56
2023/01/02 17:55:30;;;;;;;52.75;29.23;;;;;;;6.71;94.85;98129.03;5002142;28;20046;-58
2023/01/02 17:57:59;;;;;;;90.50;44.00;;;;;;;6.71;94.54;98125.47;5004200;28;20484;-55
2023/01/02 18:00:26;;;;;;;548.30;185.98;;;;;;;6.72;94.05;98127.91;5005881;28;20077;-56
2023/01/02 18:02:52;;;;;;;536.03;165.65;;;;;;;6.68;94.26;98121.41;4812035;28;5001260;-55
2023/01/02 18:05:20;;;;;;;357.60;112.15;;;;;;;6.58;94.92;98109.88;5044158;28;20059;-56
2023/01/02 18:07:47;;;;;;;314.60;97.47;;;;;;;6.55;94.52;98099.50;5031847;28;20107;-59
2023/01/02 18:10:13;;;;;;;261.45;85.25;;;;;;;6.52;94.87;98116.66;5024567;28;20483;-59
2023/01/02 18:12:46;;;;;;;260.05;85.22;;;;;;;6.53;94.14;98105.31;5035981;28;20053;-55
2023/01/02 18:15:14;;;;;;;194.93;68.28;;;;;;;6.64;94.28;98120.41;5023778;28;20053;-58
2023/01/02 18:17:41;;;;;;;124.57;47.03;;;;;;;6.34;95.15;98091.00;5024794;28;20060;-59
2023/01/02 18:20:13;;;;;;;73.70;35.88;;;;;;;6.52;95.67;98124.91;5025526;28;20527;-58
2023/01/02 18:22:40;;;;;;;52.22;26.83;;;;;;;6.49;95.83;98134.63;5024056;28;20084;-57
2023/01/02 18:25:18;;;;;;;49.03;24.95;;;;;;;6.43;95.38;98119.38;5025081;28;20128;-58
2023/01/02 18:27:46;;;;;;;120.15;44.70;;;;;;;6.42;95.79;98120.50;5024855;28;20053;-56
2023/01/02 18:30:16;;;;;;;164.95;59.97;;;;;;;6.40;96.48;98120.03;5025162;28;20092;-58
2023/01/02 18:32:43;;;;;;;95.43;39.90;;;;;;;6.33;96.63;98121.59;5024987;28;20049;-58
2023/01/02 18:35:22;;;;;;;67.93;33.65;;;;;;;6.22;96.91;98123.81;5025016;28;20115;-57
2023/01/02 18:38:33;;;;;;;66.00;33.28;;;;;;;6.22;97.37;98117.47;5024131;28;20440;-58
2023/01/02 18:41:16;;;;;;;58.95;32.97;;;;;;;5.73;96.82;98052.47;5035361;28;20079;-58
2023/01/02 18:43:44;;;;;;;61.58;32.70;;;;;;;6.08;97.17;98128.59;5044630;28;20057;-61
2023/01/02 18:46:15;;;;;;;52.78;30.52;;;;;;;6.03;97.33;98123.22;5044075;28;20048;-58
2023/01/02 18:48:42;;;;;;;64.00;30.58;;;;;;;6.09;97.12;98124.69;5043049;28;20055;-56
2023/01/02 18:51:17;;;;;;;71.60;34.15;;;;;;;6.04;96.93;98122.06;5042825;28;20079;-57
2023/01/02 18:53:55;;;;;;;61.28;28.63;;;;;;;5.64;97.63;98071.66;5044798;28;20056;-59
2023/01/02 18:56:29;;;;;;;54.25;25.60;;;;;;;5.83;97.54;98093.50;5039572;28;20400;-55
2023/01/02 18:59:04;;;;;;;40.45;23.60;;;;;;;5.86;97.97;98115.66;5024504;28;20049;-57
2023/01/02 19:01:38;;;;;;;39.80;22.27;;;;;;;5.79;98.19;98108.94;5022816;28;20119;-56
2023/01/02 19:04:07;;;;;;;45.40;24.48;;;;;;;5.76;99.42;98109.56;5024382;28;20102;-58
2023/01/02 19:06:53;;;;;;;49.08;24.45;;;;;;;5.77;99.91;98105.72;5027411;28;20555;-56
2023/01/02 19:09:32;;;;;;;38.70;22.02;;;;;;;5.68;100.00;98108.41;5023874;28;20060;-58
2023/01/02 19:15:39;;;;;;;30.27;15.88;;;;;;;5.58;100.00;98111.38;5024211;28;20085;-56
2023/01/02 19:18:21;;;;;;;32.15;15.98;;;;;;;5.48;100.00;98108.09;5023786;28;20588;-58
2023/01/02 19:21:05;;;;;;;31.85;16.80;;;;;;;5.38;100.00;98102.81;5022286;28;20511;-59
2023/01/02 19:23:41;;;;;;;36.80;19.30;;;;;;;5.55;100.00;98113.94;5023754;28;20089;-56
2023/01/02 19:26:36;;;;;;;36.35;19.67;;;;;;;5.59;100.00;98103.97;5024191;28;20087;-58
2023/01/02 19:29:09;;;;;;;40.42;21.27;;;;;;;5.59;100.00;98106.72;5024348;28;20057;-56
2023/01/02 19:31:41;;;;;;;42.95;20.70;;;;;;;5.56;100.00;98105.41;5024237;28;20049;-59
2023/01/02 19:34:26;;;;;;;51.13;24.57;;;;;;;5.63;100.00;98110.44;5023932;28;20046;-58
2023/01/02 19:37:18;;;;;;;72.25;41.33;;;;;;;5.09;100.00;98033.78;5023880;28;20060;-59
2023/01/02 19:39:51;;;;;;;97.38;50.55;;;;;;;5.42;100.00;98115.63;5018419;28;20053;-57
2023/01/02 19:42:19;;;;;;;88.25;43.60;;;;;;;5.03;100.00;98070.69;5023677;28;20101;-56
2023/01/02 19:45:03;;;;;;;77.53;44.67;;;;;;;5.34;100.00;98102.63;5023932;28;20198;-57
2023/01/02 19:47:33;;;;;;;82.78;41.30;;;;;;;5.08;100.00;98059.59;5022259;28;20057;-56
2023/01/02 19:50:01;;;;;;;54.45;30.58;;;;;;;5.20;100.00;98090.09;5033429;28;20413;-58